Weather observations for the past three days for
Fort Myers, Page Field
| Date | Time (edt) | Wind (kph) | Vis. (km) | Weather | Sky Cond. | Temperature (ºC) | Relative Humidity | Wind Chill (°C) | Heat Index (°C) | Pressure | Precipitation (cm) | ||||||
|---|---|---|---|---|---|---|---|---|---|---|---|---|---|---|---|---|---|
| Air | Dwpt | 6 hour | altimeter (cm) | sea level (mb) | 1 hr | 3 hr | 6 hr | ||||||||||
| Max. | Min. | ||||||||||||||||
| 10 | 02:53 | SE 6 | 16.09 | Mostly Cloudy | BKN090 BKN110 | 25.6 | 23.3 | 87% | 27 | 76.07 | 1014.3 | ||||||
| 10 | 01:53 | E 7 | 16.09 | Mostly Cloudy | BKN080 | 26.1 | 23.3 | 28.3 | 26.1 | 85% | 28 | 76.1 | 1014.8 | ||||
| 10 | 00:53 | Calm | 16.09 | Mostly Cloudy | BKN080 BKN100 BKN120 | 27.2 | 23.3 | 79% | 30 | 76.12 | 1015.0 | ||||||
| 09 | 23:53 | W 6 | 16.09 | Overcast | OVC110 | 27.2 | 23.3 | 79% | 30 | 76.1 | 1014.8 | ||||||
| 09 | 22:53 | SW 6 | 16.09 | Fair | CLR | 27.2 | 22.8 | 77% | 30 | 76.1 | 1014.6 | ||||||
| 09 | 21:53 | W 13 | 16.09 | Fair | CLR | 27.2 | 22.8 | 77% | 30 | 76.05 | 1014.1 | ||||||
| 09 | 20:53 | SW 13 | 16.09 | Fair | CLR | 27.8 | 21.7 | 69% | 30 | 76 | 1013.3 | ||||||
| 09 | 19:53 | SW 15 | 16.09 | Fair | CLR | 28.3 | 20.6 | 33.9 | 28.3 | 63% | 30 | 75.95 | 1012.6 | ||||
| 09 | 18:53 | SW 17 | 16.09 | Fair | CLR | 30 | 18.9 | 51% | 31 | 75.9 | 1012.0 | ||||||
| 09 | 17:53 | SW 17 | 16.09 | Fair | CLR | 31.1 | 18.3 | 46% | 32 | 75.87 | 1011.8 | ||||||
| 09 | 16:53 | SW 19 | 16.09 | Fair | CLR | 32.8 | 16.7 | 38% | 33 | 75.9 | 1011.9 | ||||||
| 09 | 15:53 | SW 15 | 16.09 | Overcast | OVC100 | 32.2 | 17.2 | 41% | 33 | 75.92 | 1012.3 | ||||||
| 09 | 14:53 | SW 15 | 16.09 | Overcast | OVC100 | 33.3 | 16.1 | 36% | 33 | 75.95 | 1012.8 | ||||||
| 09 | 13:53 | SW 17 | 16.09 | Overcast | OVC100 | 32.2 | 18.9 | 32.8 | 24.4 | 45% | 34 | 76 | 1013.3 | ||||
| 09 | 12:53 | Calm | 16.09 | Fair | CLR | 32.2 | 18.9 | 45% | 34 | 76.05 | 1013.9 | ||||||
| 09 | 11:53 | W 15 G 28 | 16.09 | Fair | CLR | 32.2 | 18.3 | 44% | 33 | 76.07 | 1014.5 | ||||||
| 09 | 10:53 | SW 13 | 16.09 | Fair | CLR | 30.6 | 18.9 | 50% | 32 | 76.07 | 1014.3 | ||||||
| 09 | 09:53 | Vrbl 6 | 16.09 | Fair | CLR | 28.9 | 20.6 | 61% | 31 | 76.05 | 1014.2 | ||||||
| 09 | 08:53 | SE 6 | 16.09 | Fair | CLR | 26.7 | 20.6 | 69% | 28 | 76.05 | 1013.9 | ||||||
| 09 | 07:53 | SE 11 | 16.09 | Fair | CLR | 24.4 | 21.1 | 26.1 | 22.8 | 82% | 25 | 76 | 1013.3 | ||||
| 09 | 06:53 | E 7 | 16.09 | Fair | CLR | 23.3 | 20.6 | 85% | 75.97 | 1012.9 | |||||||
| 09 | 05:53 | NE 7 | 16.09 | Fair | CLR | 23.3 | 20.6 | 85% | 75.97 | 1013.0 | |||||||
| 09 | 04:53 | NE 9 | 16.09 | Fair | CLR | 24.4 | 20.6 | 79% | 25 | 75.95 | 1012.8 | ||||||
| 09 | 03:53 | N 11 | 16.09 | Fair | CLR | 25 | 21.1 | 79% | 26 | 75.97 | 1013.1 | ||||||
| 09 | 02:53 | N 7 | 16.09 | Fair | CLR | 25.6 | 21.1 | 76% | 27 | 76.02 | 1013.6 | ||||||
| 09 | 01:53 | N 7 | 16.09 | Partly Cloudy | SCT050 | 26.1 | 21.1 | 30 | 26.1 | 74% | 28 | 76.07 | 1014.3 | ||||
| 09 | 00:53 | N 9 | 16.09 | Partly Cloudy | SCT065 | 26.1 | 22.2 | 79% | 28 | 76.1 | 1014.7 | ||||||
| 08 | 23:53 | N 13 | 16.09 | Mostly Cloudy | BKN060 | 26.7 | 22.8 | 79% | 29 | 76.1 | 1014.8 | ||||||
| 08 | 22:53 | NW 9 | 16.09 | Fair | CLR | 26.7 | 22.2 | 76% | 29 | 76.07 | 1014.4 | ||||||
| 08 | 21:53 | NW 11 | 16.09 | Fair | CLR | 27.2 | 21.7 | 72% | 29 | 76.05 | 1014.0 | ||||||
| 08 | 20:53 | W 11 | 16.09 | Fair | CLR | 28.9 | 19.4 | 57% | 30 | 75.97 | 1013.0 | ||||||
| 08 | 19:53 | W 13 | 16.09 | Fair | CLR | 30 | 18.9 | 33.9 | 30 | 51% | 31 | 75.92 | 1012.2 | ||||
| 08 | 18:53 | NW 19 | 16.09 | Fair | CLR | 31.1 | 19.4 | 50% | 33 | 75.9 | 1011.9 | ||||||
| 08 | 17:53 | W 17 | 16.09 | Fair | CLR | 31.7 | 20 | 50% | 34 | 75.87 | 1011.7 | ||||||
| 08 | 16:53 | W 20 | 16.09 | Fair | CLR | 32.8 | 20.6 | 49% | 36 | 75.9 | 1011.8 | ||||||
| 08 | 15:53 | Vrbl 6 | 16.09 | Partly Cloudy | SCT048 | 31.7 | 20.6 | 52% | 34 | 75.95 | 1012.6 | ||||||
| 08 | 14:53 | W 15 | 16.09 | Fair | CLR | 33.3 | 18.3 | 41% | 34 | 76 | 1013.5 | ||||||
| 08 | 13:53 | NW 13 | 16.09 | Partly Cloudy | SCT055 | 33.9 | 18.3 | 33.9 | 22.2 | 40% | 35 | 76.07 | 1014.3 | ||||
| 08 | 12:53 | Calm | 16.09 | Partly Cloudy | SCT047 SCT055 | 32.2 | 18.3 | 44% | 33 | 76.12 | 1015.1 | ||||||
| 08 | 11:53 | Vrbl 7 | 16.09 | Partly Cloudy | SCT041 | 30 | 19.4 | 53% | 32 | 76.2 | 1016.0 | ||||||
| 08 | 10:53 | N 11 | 16.09 | Fair | CLR | 30 | 20.6 | 57% | 32 | 76.23 | 1016.5 | ||||||
| 08 | 09:53 | NE 7 | 16.09 | Fair | CLR | 27.8 | 21.1 | 67% | 30 | 76.23 | 1016.4 | ||||||
| 08 | 08:53 | Calm | 8.05 | Fog/Mist | SCT002 | 23.3 | 22.2 | 94% | 76.23 | 1016.3 | |||||||
| 08 | 07:53 | SE 6 | 0.21 | Fog | VV002 | 22.2 | 22.2 | 24.4 | 22.2 | 100% | 76.17 | 1015.7 | |||||
| 08 | 06:53 | E 7 | 1.61 | Fog/Mist | VV002 | 22.8 | 21.1 | 90% | 76.1 | 1014.8 | |||||||
| 08 | 05:53 | Calm | 14.48 | Fair | CLR | 22.8 | 21.1 | 90% | 76.05 | 1014.0 | |||||||
| 08 | 04:53 | Calm | 16.09 | Fair | CLR | 22.8 | 21.1 | 90% | 76.02 | 1013.8 | |||||||
| 08 | 03:53 | Calm | 16.09 | Fair | CLR | 24.4 | 22.2 | 88% | 25 | 76.02 | 1013.8 | ||||||
| 08 | 02:53 | NW 6 | 16.09 | Fair | CLR | 24.4 | 22.2 | 88% | 25 | 76.05 | 1014.1 | ||||||
| 08 | 01:53 | NW 6 | 16.09 | Fair | CLR | 24.4 | 22.2 | 28.3 | 24.4 | 88% | 25 | 76.07 | 1014.3 | ||||
| 08 | 00:53 | NW 7 | 16.09 | Fair | CLR | 25 | 22.2 | 85% | 26 | 76.1 | 1014.7 | ||||||
| 07 | 23:53 | NW 11 | 16.09 | Fair | CLR | 25 | 22.2 | 85% | 26 | 76.12 | 1015.0 | ||||||
| 07 | 22:53 | NW 9 | 16.09 | Fair | CLR | 25.6 | 22.8 | 85% | 27 | 76.12 | 1014.9 | ||||||
| 07 | 21:53 | W 11 | 16.09 | Fair | CLR | 26.1 | 22.2 | 79% | 28 | 76.07 | 1014.5 | ||||||
| 07 | 20:53 | W 13 | 16.09 | Fair | CLR | 26.7 | 20.6 | 69% | 28 | 76.07 | 1014.5 | ||||||
| 07 | 19:53 | W 17 | 16.09 | Fair | CLR | 28.3 | 18.3 | 32.8 | 28.3 | 55% | 29 | 76.1 | 1014.6 | ||||
| 07 | 18:53 | W 17 | 16.09 | Fair | CLR | 30.6 | 17.8 | 46% | 31 | 76.05 | 1014.1 | ||||||
| 07 | 17:53 | W 19 | 16.09 | Fair | CLR | 31.1 | 17.8 | 45% | 32 | 76.05 | 1014.0 | ||||||
| 07 | 16:53 | W 19 | 16.09 | Fair | CLR | 32.2 | 15.6 | 37% | 32 | 76.05 | 1014.1 | ||||||
| 07 | 15:53 | W 17 | 16.09 | Fair | CLR | 32.2 | 18.3 | 44% | 33 | 76.07 | 1014.5 | ||||||
| 07 | 14:53 | W 17 G 31 | 16.09 | Fair | CLR | 32.2 | 17.8 | 42% | 33 | 76.15 | 1015.2 | ||||||
| 07 | 13:53 | W 20 | 16.09 | Fair | CLR | 31.7 | 16.1 | 31.7 | 23.3 | 39% | 32 | 76.2 | 1016.2 | ||||
| 07 | 12:53 | W 20 G 28 | 16.09 | Fair | CLR | 30.6 | 18.9 | 50% | 32 | 76.23 | 1016.5 | ||||||
| 07 | 11:53 | SW 17 G 26 | 16.09 | Mostly Cloudy | BKN030 | 29.4 | 20 | 57% | 31 | 76.25 | 1016.6 | ||||||
| 07 | 10:53 | S 17 | 16.09 | Partly Cloudy | SCT025 | 29.4 | 21.1 | 61% | 32 | 76.25 | 1016.8 | ||||||
| 07 | 09:53 | SW 15 | 16.09 | Mostly Cloudy | BKN020 | 27.2 | 21.1 | 69% | 29 | 76.25 | 1016.7 | ||||||
| 07 | 08:53 | E 7 | 16.09 | Fair | CLR | 25.6 | 21.7 | 79% | 27 | 76.25 | 1016.6 | ||||||
| 07 | 07:53 | SE 6 | 16.09 | Fair | CLR | 23.3 | 21.1 | 23.3 | 22.2 | 88% | 76.23 | 1016.5 | |||||
| 07 | 06:53 | Calm | 16.09 | A Few Clouds | FEW021 | 22.2 | 20 | 87% | 76.17 | 1015.7 | |||||||
| 07 | 05:53 | Calm | 16.09 | Fair | CLR | 22.8 | 20.6 | 87% | 76.12 | 1015.0 | |||||||
| 07 | 04:53 | Calm | 16.09 | Fair | CLR | 22.8 | 20.6 | 87% | 76.1 | 1014.7 | |||||||
| 07 | 03:53 | S 7 | 16.09 | Fair | CLR | 22.2 | 20.6 | 91% | 76.1 | 1014.8 | |||||||
| Date | Time (edt) | Wind (kph) | Vis. (km) | Weather | Sky Cond. | Air | Dwpt | Max. | Min. | Relative Humidity | Wind Chill (°C) | Heat Index (°C) | altimeter (cm) | sea level (mb) | 1 hr | 3 hr | 6 hr |
| 6 hour | |||||||||||||||||
| Temperature (ºC) | Pressure | Precipitation (cm) | |||||||||||||||